Time;durP1;ratioP1;P1;durP2;ratioP2;P2;SDS_P1;SDS_P2;PMS_P1;PMS_P2;Temp;Humidity;BMP_temperature;BMP_pressure;BME280_temperature;BME280_humidity;BME280_pressure;Samples;Min_cycle;Max_cycle;Signal;HPM_P1;HPM_P2
2022/01/08 00:02:13;;;;;;;3.53;2.40;;;-6.10;78.20;-6.90;98092.00;;;;5017190;28;87892;-61
2022/01/08 00:04:39;;;;;;;4.53;2.75;;;-6.10;78.00;-6.90;98093.00;;;;5019342;28;87086;-60
2022/01/08 00:07:05;;;;;;;3.05;2.40;;;-6.10;78.10;-6.90;98101.00;;;;5020056;28;89109;-60
2022/01/08 00:09:31;;;;;;;2.60;2.00;;;-6.10;77.20;-6.90;98092.00;;;;5020479;28;88119;-60
2022/01/08 00:11:57;;;;;;;2.25;1.92;;;-6.10;76.80;-6.80;98118.00;;;;5020695;28;87546;-59
2022/01/08 00:14:24;;;;;;;3.13;2.15;;;-6.00;76.80;-6.80;98127.00;;;;5020895;28;87302;-59
2022/01/08 00:16:51;;;;;;;3.97;1.90;;;-6.00;75.90;-6.80;98112.00;;;;5019993;28;87532;-54
2022/01/08 00:19:17;;;;;;;2.42;1.63;;;-6.00;75.90;-6.80;98114.00;;;;5021368;28;87295;-54
2022/01/08 00:21:44;;;;;;;1.77;1.42;;;-6.00;75.20;-6.80;98119.00;;;;5023768;28;87030;-54
2022/01/08 00:24:10;;;;;;;2.85;2.00;;;-6.00;74.10;-6.80;98120.00;;;;5024067;28;86930;-55
2022/01/08 00:26:36;;;;;;;3.55;1.85;;;-6.00;74.20;-6.70;98115.00;;;;5022974;28;87583;-53
2022/01/08 00:29:03;;;;;;;2.40;1.70;;;-5.90;73.50;-6.70;98106.00;;;;5023483;28;87059;-60
2022/01/08 00:31:30;;;;;;;2.05;1.58;;;-5.90;72.50;-6.70;98122.00;;;;5022587;28;88346;-61
2022/01/08 00:33:56;;;;;;;2.30;1.40;;;-5.90;71.60;-6.70;98124.00;;;;5024057;28;87010;-61
2022/01/08 00:36:22;;;;;;;2.60;1.77;;;-5.90;71.60;-6.70;98123.00;;;;5023020;28;88766;-57
2022/01/08 00:38:48;;;;;;;2.00;1.52;;;-5.90;71.60;-6.70;98135.00;;;;5023417;28;87287;-56
2022/01/08 00:41:14;;;;;;;2.15;1.50;;;-5.90;71.80;-6.70;98145.00;;;;5024144;28;87014;-52
2022/01/08 00:43:40;;;;;;;2.92;1.90;;;-5.90;71.80;-6.70;98138.00;;;;5023919;28;86974;-52
2022/01/08 00:46:06;;;;;;;2.22;1.55;;;-5.90;71.80;-6.70;98140.00;;;;5023067;28;87694;-56
2022/01/08 00:48:33;;;;;;;3.42;2.10;;;-5.90;71.60;-6.70;98150.00;;;;5023609;28;88541;-57
2022/01/08 00:50:59;;;;;;;2.53;1.52;;;-5.90;71.60;-6.70;98152.00;;;;5022068;28;87344;-57
2022/01/08 00:53:25;;;;;;;2.58;1.73;;;-5.90;71.60;-6.70;98153.00;;;;5023217;28;87044;-56
2022/01/08 00:55:51;;;;;;;4.15;1.60;;;-5.90;71.60;-6.70;98162.00;;;;5022602;28;89571;-56
2022/01/08 00:58:18;;;;;;;2.05;1.60;;;-5.90;71.50;-6.70;98169.00;;;;5025596;28;88227;-57
2022/01/08 01:00:44;;;;;;;2.08;1.42;;;-5.90;71.60;-6.70;98160.00;;;;5029152;28;87190;-58
2022/01/08 01:03:10;;;;;;;1.40;1.30;;;-5.90;71.60;-6.70;98157.00;;;;5022422;28;87053;-56
2022/01/08 01:05:36;;;;;;;2.42;1.60;;;-5.90;71.00;-6.70;98179.00;;;;5021930;28;88146;-58
2022/01/08 01:08:03;;;;;;;2.60;1.85;;;-5.90;71.20;-6.70;98171.00;;;;5024038;28;87416;-60
2022/01/08 01:10:29;;;;;;;2.78;1.70;;;-5.90;71.30;-6.70;98174.00;;;;5022288;28;87147;-61
2022/01/08 01:12:55;;;;;;;2.20;1.27;;;-5.90;71.50;-6.70;98184.00;;;;5023790;28;86240;-60
2022/01/08 01:15:21;;;;;;;2.30;1.50;;;-5.90;71.20;-6.70;98199.00;;;;5022008;28;88639;-61
2022/01/08 01:17:48;;;;;;;3.25;1.58;;;-5.90;71.00;-6.70;98198.00;;;;5022857;28;87319;-61
2022/01/08 01:20:17;;;;;;;3.83;1.58;;;-5.90;71.10;-6.70;98210.00;;;;5021531;28;88491;-61
2022/01/08 01:25:25;;;;;;;1.75;1.40;;;-6.00;70.90;-6.70;98213.00;;;;5019866;28;88692;-62
2022/01/08 01:30:30;;;;;;;1.50;1.40;;;-6.00;72.20;-6.70;98225.00;;;;5022043;28;86991;-61
2022/01/08 01:41:53;;;;;;;2.13;1.48;;;-6.00;71.50;-6.80;98227.00;;;;5023370;28;86936;-61
2022/01/08 01:47:01;;;;;;;1.92;1.50;;;-6.00;71.50;-6.80;98244.00;;;;5005953;28;89619;-61
2022/01/08 01:49:31;;;;;;;2.15;1.70;;;-6.00;71.80;-6.80;98241.00;;;;5022480;28;88139;-61
2022/01/08 01:51:59;;;;;;;2.23;1.60;;;-6.10;71.80;-6.80;98241.00;;;;5022957;28;88294;-61
2022/01/08 01:54:30;;;;;;;2.72;1.70;;;-6.00;72.50;-6.80;98255.00;;;;5022887;28;86938;-61
2022/01/08 01:56:59;;;;;;;2.72;1.58;;;-6.00;72.80;-6.80;98258.00;;;;5022649;28;87618;-61
2022/01/08 01:59:27;;;;;;;2.47;1.50;;;-6.00;72.90;-6.80;98253.00;;;;5022539;28;87698;-61
2022/01/08 02:01:53;;;;;;;3.70;1.65;;;-6.00;72.90;-6.80;98259.00;;;;5004502;28;87018;-62
2022/01/08 02:04:20;;;;;;;2.75;1.23;;;-6.00;72.40;-6.80;98261.00;;;;5021702;28;86673;-62
2022/01/08 02:06:46;;;;;;;3.50;1.52;;;-6.00;72.50;-6.80;98281.00;;;;5021536;28;88799;-62
2022/01/08 02:09:12;;;;;;;2.53;2.00;;;-6.00;73.10;-6.80;98297.00;;;;5022075;28;88419;-63
2022/01/08 02:12:02;;;;;;;4.15;2.22;;;-6.00;73.60;-6.80;98285.00;;;;5020964;28;88881;-61
2022/01/08 02:14:36;;;;;;;3.55;1.98;;;-6.00;73.70;-6.80;98291.00;;;;5021475;28;86900;-61
2022/01/08 02:17:09;;;;;;;2.17;1.65;;;-6.10;73.60;-6.90;98305.00;;;;5022025;28;88723;-61
2022/01/08 02:19:37;;;;;;;2.53;1.60;;;-6.10;73.70;-6.90;98310.00;;;;5021499;28;87191;-61
2022/01/08 02:22:05;;;;;;;2.75;1.80;;;-6.10;73.60;-6.80;98307.00;;;;5021129;28;86914;-61
2022/01/08 02:24:32;;;;;;;2.03;1.60;;;-6.00;74.20;-6.80;98312.00;;;;5021267;28;87586;-61
2022/01/08 02:26:58;;;;;;;2.72;1.90;;;-6.00;74.20;-6.80;98320.00;;;;5020756;28;87823;-61
2022/01/08 02:29:26;;;;;;;3.15;1.88;;;-6.00;74.70;-6.80;98323.00;;;;5021945;28;86546;-60
2022/01/08 02:32:12;;;;;;;2.72;1.75;;;-6.10;74.50;-6.80;98318.00;;;;5020791;28;87004;-61
2022/01/08 02:34:40;;;;;;;2.88;2.05;;;-6.10;74.90;-6.80;98320.00;;;;5028096;28;86981;-60
2022/01/08 02:37:07;;;;;;;4.88;2.40;;;-6.00;75.00;-6.80;98324.00;;;;5020442;28;88631;-60
2022/01/08 02:39:40;;;;;;;4.22;2.13;;;-6.00;75.30;-6.80;98337.00;;;;5021103;28;89978;-60
2022/01/08 02:42:11;;;;;;;2.47;1.88;;;-6.00;75.40;-6.80;98333.00;;;;5020952;28;87187;-61
2022/01/08 02:44:37;;;;;;;3.33;2.00;;;-6.00;75.30;-6.80;98324.00;;;;5021171;28;87072;-60
2022/01/08 02:47:04;;;;;;;4.20;2.10;;;-6.00;75.60;-6.80;98340.00;;;;5021312;28;87399;-60
2022/01/08 02:49:34;;;;;;;3.60;2.25;;;-6.10;75.70;-6.90;98350.00;;;;5020658;28;87168;-61
2022/01/08 02:52:01;;;;;;;3.67;2.10;;;-6.00;76.20;-6.90;98349.00;;;;5021411;28;86922;-61
2022/01/08 02:54:28;;;;;;;2.72;2.05;;;-6.10;76.50;-6.90;98353.00;;;;5021326;28;86337;-60
2022/01/08 02:56:54;;;;;;;3.60;2.42;;;-6.10;76.80;-6.90;98361.00;;;;5020561;28;90019;-60
2022/01/08 02:59:20;;;;;;;3.42;2.15;;;-6.10;76.80;-6.90;98360.00;;;;5033573;28;87320;-61
2022/01/08 03:01:46;;;;;;;3.13;2.28;;;-6.10;77.60;-6.90;98368.00;;;;5028951;28;88309;-61
2022/01/08 03:04:13;;;;;;;5.63;2.75;;;-6.10;77.90;-6.90;98374.00;;;;5021501;28;87090;-61
2022/01/08 03:06:40;;;;;;;4.72;2.35;;;-6.10;78.10;-6.90;98376.00;;;;5021758;28;88165;-61
2022/01/08 03:09:07;;;;;;;3.65;2.20;;;-6.10;78.60;-6.90;98380.00;;;;5020919;28;87442;-61
2022/01/08 03:11:34;;;;;;;6.18;3.40;;;-6.10;79.00;-6.90;98384.00;;;;5024674;28;87347;-61
2022/01/08 03:14:00;;;;;;;4.50;2.53;;;-6.10;79.50;-6.90;98386.00;;;;5021590;28;87394;-61
2022/01/08 03:16:26;;;;;;;4.13;2.20;;;-6.10;80.00;-6.90;98393.00;;;;5021499;28;87358;-61
2022/01/08 03:18:52;;;;;;;4.78;2.75;;;-6.10;80.40;-6.90;98391.00;;;;5021081;28;87320;-61
2022/01/08 03:21:21;;;;;;;3.95;2.22;;;-6.10;81.10;-6.90;98398.00;;;;5021412;28;87323;-61
2022/01/08 03:23:56;;;;;;;4.57;2.70;;;-6.10;81.70;-6.90;98403.00;;;;5020449;28;87063;-61
2022/01/08 03:26:26;;;;;;;4.85;2.42;;;-6.10;82.10;-6.90;98410.00;;;;5019937;28;89542;-61
2022/01/08 03:28:53;;;;;;;4.80;2.80;;;-6.10;82.20;-6.90;98407.00;;;;5019801;28;89317;-61
2022/01/08 03:31:21;;;;;;;4.18;2.83;;;-6.10;82.20;-6.90;98414.00;;;;5020414;28;87239;-61
2022/01/08 03:33:48;;;;;;;4.95;2.60;;;-6.10;82.30;-6.90;98419.00;;;;5021257;28;86959;-61
2022/01/08 03:36:16;;;;;;;5.20;2.60;;;-6.10;83.10;-6.90;98421.00;;;;5020567;28;87787;-61
2022/01/08 03:38:42;;;;;;;4.25;2.67;;;-6.10;83.40;-6.90;98420.00;;;;5020464;28;87581;-60
2022/01/08 03:41:09;;;;;;;4.32;2.55;;;-6.10;83.70;-6.90;98423.00;;;;5021336;28;87312;-61
2022/01/08 03:43:35;;;;;;;4.03;2.70;;;-6.10;84.30;-6.90;98421.00;;;;5021365;28;86784;-62
2022/01/08 03:46:03;;;;;;;6.07;2.97;;;-6.20;84.70;-6.90;98420.00;;;;5021445;28;87261;-62
2022/01/08 03:48:43;;;;;;;3.97;2.90;;;-6.20;85.00;-6.90;98428.00;;;;5020012;28;88220;-61
2022/01/08 03:51:11;;;;;;;4.82;2.90;;;-6.20;85.50;-6.90;98419.00;;;;5018088;28;87913;-62
2022/01/08 03:53:38;;;;;;;6.82;3.08;;;-6.20;85.90;-7.00;98416.00;;;;5018859;28;86992;-57
2022/01/08 03:56:05;;;;;;;5.03;2.40;;;-6.20;86.20;-7.00;98435.00;;;;5020293;28;87534;-58
2022/01/08 03:58:31;;;;;;;4.18;2.45;;;-6.20;86.50;-6.90;98434.00;;;;5025307;28;87804;-57
2022/01/08 04:00:57;;;;;;;4.38;2.63;;;-6.20;86.80;-7.00;98438.00;;;;5024194;28;87090;-57
2022/01/08 04:03:23;;;;;;;4.55;2.63;;;-6.20;86.80;-6.90;98443.00;;;;5020399;28;87060;-57
2022/01/08 04:05:50;;;;;;;4.53;2.30;;;-6.10;86.60;-6.90;98429.00;;;;5020238;28;88499;-56
2022/01/08 04:08:18;;;;;;;3.75;2.22;;;-6.10;86.40;-6.80;98441.00;;;;5021165;28;87388;-57
2022/01/08 04:10:45;;;;;;;3.97;2.60;;;-6.10;85.30;-6.80;98448.00;;;;5021476;28;87025;-55
2022/01/08 04:13:24;;;;;;;4.53;2.47;;;-6.00;85.60;-6.80;98458.00;;;;5022161;28;87445;-54
2022/01/08 04:15:55;;;;;;;3.55;1.83;;;-6.00;84.50;-6.70;98440.00;;;;5020599;28;87876;-56
2022/01/08 04:18:21;;;;;;;4.03;1.80;;;-6.00;83.60;-6.70;98454.00;;;;5018985;28;88176;-60
2022/01/08 04:21:11;;;;;;;4.30;2.00;;;-5.90;83.40;-6.70;98453.00;;;;5019916;28;87094;-61
2022/01/08 04:23:37;;;;;;;2.60;1.70;;;-5.90;83.40;-6.70;98460.00;;;;5016226;28;87286;-62
2022/01/08 04:26:05;;;;;;;2.53;1.73;;;-5.90;82.50;-6.60;98469.00;;;;5019570;28;89041;-62
2022/01/08 04:28:32;;;;;;;2.17;1.70;;;-5.90;82.30;-6.60;98467.00;;;;5017021;28;88363;-62
2022/01/08 04:30:58;;;;;;;2.95;1.73;;;-5.80;82.20;-6.60;98454.00;;;;5017231;28;87342;-61
2022/01/08 04:33:24;;;;;;;2.55;1.63;;;-5.80;82.20;-6.60;98472.00;;;;5027687;28;86682;-62
2022/01/08 04:35:50;;;;;;;2.60;1.67;;;-5.80;82.10;-6.60;98469.00;;;;5020250;28;87443;-62
2022/01/08 04:38:16;;;;;;;2.60;1.70;;;-5.80;82.10;-6.60;98469.00;;;;5019033;28;89781;-62
2022/01/08 04:40:43;;;;;;;4.00;1.80;;;-5.80;82.10;-6.60;98478.00;;;;5019198;28;88303;-62
2022/01/08 04:43:09;;;;;;;2.72;1.75;;;-5.80;82.00;-6.60;98473.00;;;;5020191;28;87299;-62
2022/01/08 04:45:35;;;;;;;4.32;1.88;;;-5.80;81.90;-6.60;98477.00;;;;5020458;28;87608;-61
2022/01/08 04:48:02;;;;;;;4.32;1.77;;;-5.80;82.20;-6.60;98477.00;;;;5019426;28;87847;-62
2022/01/08 04:50:29;;;;;;;3.28;1.60;;;-5.80;82.40;-6.60;98486.00;;;;5019303;28;87023;-60
2022/01/08 04:52:57;;;;;;;4.55;1.65;;;-5.80;82.50;-6.60;98483.00;;;;5020201;28;87085;-62
2022/01/08 04:55:23;;;;;;;2.95;1.60;;;-5.80;82.40;-6.60;98489.00;;;;5019545;28;87691;-61
2022/01/08 04:57:49;;;;;;;5.20;1.88;;;-5.80;83.20;-6.60;98495.00;;;;5020307;28;88473;-61
2022/01/08 05:00:18;;;;;;;3.58;1.67;;;-5.80;82.50;-6.60;98486.00;;;;5039117;28;87239;-61
2022/01/08 05:02:44;;;;;;;2.13;1.70;;;-5.80;83.30;-6.60;98497.00;;;;5021865;28;87597;-61
2022/01/08 05:05:10;;;;;;;2.63;1.48;;;-5.80;82.50;-6.60;98496.00;;;;5019726;28;88643;-62
2022/01/08 05:07:37;;;;;;;2.22;1.42;;;-5.80;82.70;-6.60;98504.00;;;;5023098;28;88689;-61
2022/01/08 05:10:06;;;;;;;3.10;1.83;;;-5.80;82.90;-6.60;98508.00;;;;5015237;28;87663;-61
2022/01/08 05:12:33;;;;;;;3.88;2.10;;;-5.80;83.10;-6.60;98518.00;;;;5023545;28;87483;-61
2022/01/08 05:15:01;;;;;;;2.50;1.70;;;-5.80;83.30;-6.60;98522.00;;;;5022291;28;88067;-61
2022/01/08 05:17:34;;;;;;;3.88;1.55;;;-5.80;83.50;-6.60;98527.00;;;;5023266;28;88451;-61
2022/01/08 05:20:04;;;;;;;3.60;1.65;;;-5.80;84.00;-6.60;98536.00;;;;5022861;28;87834;-61
2022/01/08 05:22:48;;;;;;;3.30;2.33;;;-5.80;84.30;-6.60;98543.00;;;;5021706;28;87307;-61
2022/01/08 05:25:16;;;;;;;5.20;1.80;;;-5.80;84.40;-6.60;98554.00;;;;5021084;28;87567;-61
2022/01/08 05:27:42;;;;;;;3.28;1.85;;;-5.80;84.70;-6.60;98546.00;;;;5004540;28;87543;-61
2022/01/08 05:30:09;;;;;;;2.15;1.50;;;-5.80;84.70;-6.60;98544.00;;;;5020961;28;87910;-61
2022/01/08 05:32:35;;;;;;;3.67;1.60;;;-5.80;84.60;-6.60;98562.00;;;;5021807;28;87053;-61
2022/01/08 05:35:01;;;;;;;4.15;2.30;;;-5.80;84.70;-6.60;98571.00;;;;5029530;27;88996;-61
2022/01/08 05:37:29;;;;;;;5.10;2.00;;;-5.80;85.20;-6.60;98559.00;;;;5021842;28;88663;-62
2022/01/08 05:39:56;;;;;;;5.63;2.53;;;-5.80;85.70;-6.60;98568.00;;;;5021661;28;86989;-61
2022/01/08 05:42:22;;;;;;;5.65;2.40;;;-5.80;86.10;-6.60;98568.00;;;;5022199;28;87550;-62
2022/01/08 05:44:48;;;;;;;3.28;1.98;;;-5.80;86.00;-6.60;98567.00;;;;5021439;28;87366;-62
2022/01/08 05:47:15;;;;;;;4.05;1.80;;;-5.80;86.00;-6.60;98575.00;;;;5023041;28;87363;-62
2022/01/08 05:49:42;;;;;;;4.22;1.92;;;-5.80;86.10;-6.60;98564.00;;;;5021874;28;87385;-60
2022/01/08 05:52:08;;;;;;;4.38;2.15;;;-5.80;86.20;-6.60;98576.00;;;;5022038;28;87330;-61
2022/01/08 05:54:35;;;;;;;4.20;1.95;;;-5.80;86.20;-6.60;98593.00;;;;5022242;28;89572;-62
2022/01/08 05:57:01;;;;;;;3.85;2.10;;;-5.80;86.20;-6.60;98595.00;;;;5022359;28;88189;-61
2022/01/08 05:59:27;;;;;;;4.82;1.98;;;-5.80;86.30;-6.60;98586.00;;;;5035537;28;87230;-59
2022/01/08 06:01:55;;;;;;;2.63;1.70;;;-5.80;86.50;-6.50;98595.00;;;;5030314;28;87297;-61
2022/01/08 06:04:21;;;;;;;2.95;1.80;;;-5.70;86.30;-6.50;98597.00;;;;5021377;28;88407;-61
2022/01/08 06:06:48;;;;;;;3.97;2.03;;;-5.70;86.10;-6.50;98601.00;;;;5022332;28;87200;-61
2022/01/08 06:09:14;;;;;;;3.78;1.90;;;-5.70;86.30;-6.50;98595.00;;;;5022198;28;87023;-62
2022/01/08 06:11:40;;;;;;;6.72;2.35;;;-5.70;86.10;-6.40;98614.00;;;;5027062;28;86225;-63
2022/01/08 06:14:06;;;;;;;3.20;1.90;;;-5.70;86.10;-6.40;98620.00;;;;5022007;28;88665;-61
2022/01/08 06:16:35;;;;;;;5.00;2.40;;;-5.60;86.40;-6.40;98614.00;;;;5020991;28;87462;-62
2022/01/08 06:19:05;;;;;;;3.33;1.85;;;-5.60;86.50;-6.40;98621.00;;;;5021258;28;88064;-62
2022/01/08 06:21:32;;;;;;;5.80;1.95;;;-5.60;86.90;-6.40;98623.00;;;;5021614;28;87127;-62
2022/01/08 06:23:58;;;;;;;3.40;2.17;;;-5.60;87.20;-6.40;98628.00;;;;5021781;28;87663;-61
2022/01/08 06:26:24;;;;;;;4.72;2.13;;;-5.60;87.60;-6.30;98630.00;;;;5021061;28;87974;-62
2022/01/08 06:28:51;;;;;;;3.47;1.90;;;-5.60;87.90;-6.30;98639.00;;;;5021142;28;87795;-61
2022/01/08 06:31:22;;;;;;;4.22;2.00;;;-5.60;87.80;-6.30;98644.00;;;;5020467;28;87436;-62
2022/01/08 06:33:49;;;;;;;6.03;2.50;;;-5.50;88.00;-6.30;98644.00;;;;5022322;28;87537;-62
2022/01/08 06:36:18;;;;;;;5.10;2.20;;;-5.50;87.60;-6.20;98642.00;;;;5021857;28;88464;-61
2022/01/08 06:38:48;;;;;;;5.53;2.10;;;-5.50;87.00;-6.20;98647.00;;;;5020015;28;87468;-61
2022/01/08 06:41:14;;;;;;;3.88;1.85;;;-5.40;85.90;-6.10;98652.00;;;;5000337;28;87003;-61
2022/01/08 06:43:41;;;;;;;4.13;2.22;;;-5.30;84.60;-6.10;98656.00;;;;5016443;28;88625;-62
2022/01/08 06:46:07;;;;;;;4.07;2.05;;;-5.30;81.90;-6.00;98657.00;;;;5021185;28;89819;-61
2022/01/08 06:48:33;;;;;;;3.28;1.67;;;-5.20;80.30;-5.90;98659.00;;;;5020261;28;87374;-61
2022/01/08 06:50:59;;;;;;;3.70;1.73;;;-5.20;79.90;-5.90;98656.00;;;;5020901;28;87004;-61
2022/01/08 06:53:25;;;;;;;4.80;1.80;;;-5.10;79.60;-5.80;98667.00;;;;5021110;28;88719;-62
2022/01/08 06:55:51;;;;;;;8.38;2.00;;;-5.10;78.00;-5.80;98681.00;;;;5021080;28;88325;-62
2022/01/08 06:58:20;;;;;;;3.78;1.88;;;-5.00;76.90;-5.70;98674.00;;;;5020065;28;87588;-61
2022/01/08 07:00:47;;;;;;;4.72;2.17;;;-5.00;76.80;-5.70;98665.00;;;;5021517;28;86382;-62
2022/01/08 07:03:14;;;;;;;3.20;2.00;;;-4.90;76.30;-5.60;98669.00;;;;5020371;28;88605;-63
2022/01/08 07:05:40;;;;;;;2.10;1.45;;;-4.90;76.70;-5.60;98667.00;;;;5016300;28;87131;-62
2022/01/08 07:08:07;;;;;;;4.18;1.55;;;-4.80;75.40;-5.50;98670.00;;;;5020494;28;88281;-61
2022/01/08 07:10:33;;;;;;;2.70;1.27;;;-4.70;75.30;-5.50;98679.00;;;;5021431;28;87443;-61
2022/01/08 07:13:00;;;;;;;2.97;1.63;;;-4.80;75.00;-5.50;98679.00;;;;5020780;28;88435;-63
2022/01/08 07:15:26;;;;;;;2.60;1.52;;;-4.80;74.80;-5.50;98690.00;;;;5020640;28;87476;-62
2022/01/08 07:17:52;;;;;;;2.80;1.85;;;-4.80;75.10;-5.50;98678.00;;;;5020141;28;87349;-62
2022/01/08 07:20:18;;;;;;;5.00;2.03;;;-4.70;75.50;-5.40;98690.00;;;;5020970;28;87119;-61
2022/01/08 07:22:45;;;;;;;3.30;1.70;;;-4.70;75.20;-5.40;98697.00;;;;5020068;28;87664;-61
2022/01/08 07:25:11;;;;;;;5.93;2.20;;;-4.70;75.50;-5.30;98695.00;;;;5020105;28;88440;-62
2022/01/08 07:27:38;;;;;;;3.10;1.80;;;-4.70;75.50;-5.30;98704.00;;;;5019966;28;87982;-62
2022/01/08 07:30:07;;;;;;;3.97;2.20;;;-4.60;76.40;-5.30;98704.00;;;;5019729;28;86987;-62
2022/01/08 07:32:43;;;;;;;3.30;2.25;;;-4.60;75.80;-5.30;98713.00;;;;5020231;28;88693;-62
2022/01/08 07:35:10;;;;;;;4.95;2.47;;;-4.60;76.00;-5.20;98720.00;;;;5013557;28;88707;-61
2022/01/08 07:37:37;;;;;;;7.30;2.45;;;-4.60;76.10;-5.20;98720.00;;;;5020227;28;87049;-61
2022/01/08 07:40:05;;;;;;;3.80;1.50;;;-4.50;76.00;-5.20;98717.00;;;;5020576;28;86983;-61
2022/01/08 07:42:31;;;;;;;3.63;1.90;;;-4.50;75.20;-5.20;98720.00;;;;5019192;28;87809;-62
2022/01/08 07:44:57;;;;;;;4.07;2.05;;;-4.50;75.00;-5.10;98715.00;;;;5019188;28;87397;-63
2022/01/08 07:47:23;;;;;;;4.20;1.88;;;-4.40;75.00;-5.10;98727.00;;;;5020388;28;87054;-62
2022/01/08 07:49:49;;;;;;;5.63;2.47;;;-4.40;75.00;-5.00;98714.00;;;;5020491;28;86345;-61
2022/01/08 07:52:16;;;;;;;5.55;2.20;;;-4.30;75.20;-5.10;98717.00;;;;5020051;28;87611;-62
2022/01/08 07:54:43;;;;;;;4.45;1.67;;;-4.40;75.10;-5.20;98738.00;;;;5020498;28;88463;-62
2022/01/08 07:57:09;;;;;;;3.47;1.83;;;-4.50;75.60;-5.20;98730.00;;;;5020522;28;88499;-62
2022/01/08 07:59:35;;;;;;;3.53;1.80;;;-4.50;75.90;-5.30;98731.00;;;;5034050;28;87285;-61
2022/01/08 08:02:01;;;;;;;5.40;2.05;;;-4.60;76.50;-5.30;98745.00;;;;5029039;28;87932;-61
2022/01/08 08:04:28;;;;;;;4.25;2.08;;;-4.60;76.70;-5.40;98738.00;;;;5019421;28;88308;-62
2022/01/08 08:06:54;;;;;;;3.15;1.50;;;-4.60;77.30;-5.30;98747.00;;;;5019532;28;87215;-62
2022/01/08 08:09:20;;;;;;;4.28;2.15;;;-4.60;77.60;-5.40;98750.00;;;;5020448;28;87453;-63
2022/01/08 08:11:47;;;;;;;3.45;1.90;;;-4.60;77.70;-5.30;98762.00;;;;5026696;28;87636;-62
2022/01/08 08:14:13;;;;;;;5.15;2.08;;;-4.50;78.10;-5.30;98749.00;;;;5020542;28;87821;-62
2022/01/08 08:16:40;;;;;;;4.05;2.00;;;-4.60;78.20;-5.30;98754.00;;;;5020231;28;87361;-62
2022/01/08 08:19:06;;;;;;;5.32;2.22;;;-4.60;78.30;-5.30;98760.00;;;;5020263;28;87017;-62
2022/01/08 08:21:32;;;;;;;5.60;2.13;;;-4.60;78.30;-5.30;98749.00;;;;5018864;28;88560;-63
2022/01/08 08:24:00;;;;;;;3.10;1.90;;;-4.60;78.20;-5.20;98751.00;;;;5017753;28;88381;-62
2022/01/08 08:26:26;;;;;;;3.63;1.73;;;-4.50;78.20;-5.20;98752.00;;;;5019165;28;87433;-62
2022/01/08 08:28:52;;;;;;;3.58;1.80;;;-4.40;77.80;-5.00;98748.00;;;;5018143;28;87359;-62
2022/01/08 08:31:18;;;;;;;4.85;2.00;;;-4.30;77.40;-5.00;98760.00;;;;5018740;28;87640;-62
2022/01/08 08:33:44;;;;;;;4.03;2.42;;;-4.30;77.10;-5.00;98766.00;;;;5019388;28;87533;-63
2022/01/08 08:36:10;;;;;;;6.05;2.10;;;-4.30;76.90;-4.90;98769.00;;;;5020122;28;86924;-62
2022/01/08 08:38:36;;;;;;;4.22;1.90;;;-4.30;77.10;-5.00;98773.00;;;;5019767;28;86210;-62
2022/01/08 08:41:03;;;;;;;4.88;2.00;;;-4.30;76.90;-5.00;98773.00;;;;5022198;28;87441;-62
2022/01/08 08:43:29;;;;;;;4.38;2.13;;;-4.30;77.10;-4.90;98773.00;;;;5023234;28;87637;-63
2022/01/08 08:45:55;;;;;;;6.22;2.17;;;-4.20;77.00;-4.90;98769.00;;;;5023384;28;87893;-64
2022/01/08 08:48:21;;;;;;;6.90;2.40;;;-4.20;76.90;-5.00;98766.00;;;;5022185;28;87559;-63
2022/01/08 08:50:48;;;;;;;4.88;2.25;;;-4.30;76.80;-5.00;98772.00;;;;5005055;28;88853;-63
2022/01/08 08:53:14;;;;;;;6.65;3.55;;;-4.20;77.00;-4.90;98775.00;;;;5022139;28;87438;-62
2022/01/08 08:55:40;;;;;;;6.22;2.83;;;-4.20;76.90;-4.90;98777.00;;;;5023708;28;86991;-62
2022/01/08 08:58:06;;;;;;;7.97;3.13;;;-4.20;76.70;-4.70;98788.00;;;;5024683;28;86986;-62
2022/01/08 09:00:32;;;;;;;6.53;2.47;;;-4.00;77.00;-4.70;98779.00;;;;5042504;28;88563;-62
2022/01/08 09:02:58;;;;;;;5.95;2.40;;;-4.00;76.50;-4.60;98791.00;;;;5024718;27;87267;-62
2022/01/08 09:05:25;;;;;;;4.18;1.80;;;-4.00;76.40;-4.70;98784.00;;;;5023267;28;87606;-62
2022/01/08 09:07:51;;;;;;;5.70;2.20;;;-4.10;76.50;-4.90;98810.00;;;;5022550;28;87177;-62
2022/01/08 09:10:23;;;;;;;4.10;1.88;;;-4.30;77.50;-5.00;98804.00;;;;5021971;28;88697;-62
2022/01/08 09:12:49;;;;;;;3.60;2.10;;;-4.40;78.50;-5.00;98812.00;;;;5022766;28;88295;-61
2022/01/08 09:15:16;;;;;;;3.75;1.90;;;-4.30;79.20;-5.00;98808.00;;;;5022370;28;87313;-61
2022/01/08 09:17:42;;;;;;;5.47;2.25;;;-4.30;78.60;-5.00;98819.00;;;;5022781;28;87105;-61
2022/01/08 09:20:10;;;;;;;5.28;2.17;;;-4.40;78.50;-5.00;98813.00;;;;5021610;28;88733;-62
2022/01/08 09:22:36;;;;;;;7.50;2.28;;;-4.40;79.00;-5.00;98805.00;;;;5022018;28;87207;-62
2022/01/08 09:25:05;;;;;;;5.38;2.60;;;-4.30;79.60;-4.90;98807.00;;;;5023594;28;87934;-61
2022/01/08 09:27:31;;;;;;;4.47;2.55;;;-4.20;80.10;-4.80;98800.00;;;;5020534;28;86646;-61
2022/01/08 09:29:58;;;;;;;5.97;2.60;;;-4.20;78.90;-4.90;98807.00;;;;5022021;28;87504;-62
2022/01/08 09:32:25;;;;;;;5.78;2.67;;;-4.20;79.20;-4.80;98815.00;;;;5022431;28;87342;-63
2022/01/08 09:34:52;;;;;;;4.15;2.47;;;-4.20;79.50;-4.70;98817.00;;;;5020726;28;88303;-62
2022/01/08 09:37:18;;;;;;;5.85;2.90;;;-4.20;79.20;-4.80;98806.00;;;;5021782;28;87160;-61
2022/01/08 09:39:45;;;;;;;7.18;2.60;;;-4.20;79.30;-4.80;98822.00;;;;5022600;28;87549;-63
2022/01/08 09:42:11;;;;;;;7.60;3.00;;;-4.20;79.10;-4.80;98815.00;;;;5022357;28;87286;-62
2022/01/08 09:44:43;;;;;;;6.30;2.70;;;-4.20;78.80;-4.70;98833.00;;;;5022178;28;87452;-62
2022/01/08 09:47:09;;;;;;;5.18;2.60;;;-4.10;78.90;-4.80;98825.00;;;;5022605;28;87240;-62
2022/01/08 09:49:35;;;;;;;5.68;2.58;;;-4.20;78.80;-4.80;98825.00;;;;5021844;28;87750;-62
2022/01/08 09:52:03;;;;;;;5.03;2.50;;;-4.20;78.80;-4.80;98839.00;;;;5021238;28;86395;-61
2022/01/08 09:54:31;;;;;;;8.23;2.88;;;-4.10;79.50;-4.90;98841.00;;;;5020835;28;87613;-61
2022/01/08 09:56:58;;;;;;;6.85;3.00;;;-4.20;79.40;-4.90;98842.00;;;;5022620;28;86957;-62
2022/01/08 09:59:25;;;;;;;6.05;3.22;;;-4.20;79.80;-5.00;98840.00;;;;5021738;28;88856;-62
2022/01/08 10:01:58;;;;;;;6.20;2.70;;;-4.30;80.10;-5.00;98831.00;;;;5021311;28;88859;-62
2022/01/08 10:04:27;;;;;;;6.05;2.70;;;-4.30;80.30;-5.00;98847.00;;;;5021850;28;87058;-62
2022/01/08 10:07:26;;;;;;;9.18;2.90;;;-4.40;80.10;-5.00;98841.00;;;;5020718;28;87085;-62
2022/01/08 10:10:13;;;;;;;5.20;2.60;;;-4.40;80.00;-5.00;98849.00;;;;5021654;28;89638;-62
2022/01/08 10:12:56;;;;;;;6.20;2.83;;;-4.30;80.30;-4.90;98852.00;;;;5032823;28;86999;-62
2022/01/08 10:18:31;;;;;;;3.95;2.53;;;-4.30;80.20;-5.00;98852.00;;;;5021240;28;86286;-63
2022/01/08 10:20:59;;;;;;;6.00;2.58;;;-4.40;79.80;-5.00;98846.00;;;;5020229;28;87800;-63
2022/01/08 10:23:30;;;;;;;6.47;2.78;;;-4.30;80.10;-4.90;98853.00;;;;5020903;28;88329;-63
2022/01/08 10:26:09;;;;;;;5.18;2.40;;;-4.30;79.80;-5.00;98853.00;;;;5015744;28;88530;-62
2022/01/08 10:28:46;;;;;;;6.53;2.88;;;-4.30;79.30;-5.00;98867.00;;;;5020117;28;87355;-63
2022/01/08 10:31:18;;;;;;;5.47;2.60;;;-4.40;80.00;-5.00;98867.00;;;;5020044;28;88088;-63
2022/01/08 10:33:51;;;;;;;5.15;3.13;;;-4.40;80.30;-5.10;98865.00;;;;5023746;28;88333;-62
2022/01/08 10:36:56;;;;;;;9.02;3.50;;;-4.40;80.60;-5.00;98879.00;;;;5020472;28;87060;-62
2022/01/08 10:39:33;;;;;;;5.05;3.28;;;-4.40;80.60;-5.10;98871.00;;;;5017489;28;87338;-63
2022/01/08 10:42:09;;;;;;;5.18;3.30;;;-4.50;80.90;-5.10;98869.00;;;;5021003;28;87529;-61
2022/01/08 10:44:35;;;;;;;5.15;3.03;;;-4.40;81.30;-5.10;98878.00;;;;5021013;28;87698;-61
2022/01/08 10:47:03;;;;;;;9.05;3.72;;;-4.40;80.80;-5.00;98882.00;;;;5021070;28;86927;-61
2022/01/08 10:50:00;;;;;;;7.30;3.20;;;-4.40;80.90;-4.90;98878.00;;;;5019149;28;86940;-61
2022/01/08 10:52:27;;;;;;;7.00;3.30;;;-4.30;81.00;-5.00;98872.00;;;;5018521;28;88749;-62
2022/01/08 10:54:59;;;;;;;7.00;3.28;;;-4.30;80.20;-5.00;98868.00;;;;5019640;28;89425;-63
2022/01/08 10:57:39;;;;;;;5.65;3.60;;;-4.30;80.60;-5.00;98874.00;;;;5018362;28;87048;-62
2022/01/08 11:00:12;;;;;;;6.28;3.10;;;-4.40;80.30;-5.00;98875.00;;;;5018954;28;87222;-61
2022/01/08 11:02:40;;;;;;;6.78;3.90;;;-4.40;80.30;-5.10;98875.00;;;;5019312;28;89693;-62
2022/01/08 11:05:09;;;;;;;7.97;4.00;;;-4.40;80.90;-5.00;98859.00;;;;5003126;28;87814;-63
2022/01/08 11:07:37;;;;;;;8.38;4.20;;;-4.30;81.10;-5.00;98860.00;;;;5020178;28;87124;-63
2022/01/08 11:10:15;;;;;;;5.78;3.50;;;-4.40;81.30;-5.00;98862.00;;;;5021915;28;86182;-62
2022/01/08 11:12:41;;;;;;;7.03;3.83;;;-4.30;81.60;-4.90;98857.00;;;;5032837;28;88571;-62
2022/01/08 11:17:55;;;;;;;9.50;4.82;;;-4.20;80.80;-4.90;98873.00;;;;5020622;28;89238;-61
2022/01/08 11:20:28;;;;;;;6.22;3.70;;;-4.20;81.10;-4.90;98875.00;;;;5020486;28;87001;-62
2022/01/08 11:22:58;;;;;;;7.45;4.22;;;-4.20;80.60;-4.90;98862.00;;;;5018603;28;88710;-62